Terminal Aerodrome Forecast
Issued by NWS Memphis, TN

Home | Current Version | Previous Version | Text Only | Print | Product List | Glossary On
Versions: 1 2 3 4 5 6 7 8 9 10 11 12 13 14 15 16
314
FTUS44 KMEG 300702 AAA
TAFMKL
TAF AMD
KMKL 300702Z 3007/3106 17012G17KT P6SM FEW050 BKN120 WS020/19045KT
     FM301100 18010G16KT 6SM -SHRA VCSH SCT020 OVC035 WS020/20050KT
     FM301400 19013G20KT P6SM VCSH BKN025 OVC040
      TEMPO 3018/3021 VRB20G35KT 3SM TSRA BKN025CB OVC040
     FM302100 22012KT P6SM VCSH SCT025 OVC040
     FM310100 25007KT P6SM BKN040=

USA.gov is the U.S. government's official web portal to all federal, state and local government web resources and services.